Terminal Aerodrome Forecast
Issued by NWS

Home | Current Version | Previous Version | Text Only | Print | Product List | Glossary On
Versions: 1 2 3 4 5 6 7 8 9 10 11 12 13 14 15 16
000
FTAK31 PAJN 220500
TAFAPG
TAF
PAPG 220520Z 2206/2306 00000KT P6SM BKN070
     FM220900 00000KT 4SM BR FEW002
     FM221300 00000KT 1SM BR BKN002
     FM221600 05004KT P6SM FEW002 BKN070
     FM222000 06004KT P6SM SCT060
     FM230300 05006KT P6SM VCSH BKN060
      AMD LTD TO CLD VIS AND WIND 2206/2215=

USA.gov is the U.S. government's official web portal to all federal, state and local government web resources and services.